Time;durP1;ratioP1;P1;durP2;ratioP2;P2;SDS_P1;SDS_P2;PMS_P1;PMS_P2;Temp;Humidity;BMP_temperature;BMP_pressure;BME280_temperature;BME280_humidity;BME280_pressure;Samples;Min_cycle;Max_cycle;Signal;HPM_P1;HPM_P2
2021/05/23 00:01:48;;;;;;;2.97;0.60;;;;;;;11.14;66.16;98612.38;5051633;28;20056;-84
2021/05/23 00:04:14;;;;;;;2.22;0.70;;;;;;;11.28;66.93;98622.28;5048386;28;20063;-84
2021/05/23 00:06:42;;;;;;;1.15;0.63;;;;;;;11.12;65.88;98596.25;5047748;28;20538;-84
2021/05/23 00:09:19;;;;;;;1.38;0.68;;;;;;;11.14;68.70;98610.50;5031831;28;20132;-84
2021/05/23 00:11:46;;;;;;;1.15;0.68;;;;;;;11.07;68.57;98615.06;5051444;28;20049;-84
2021/05/23 00:14:17;;;;;;;3.13;0.80;;;;;;;11.13;66.35;98602.53;5050570;28;20049;-84
2021/05/23 00:16:50;;;;;;;0.85;0.57;;;;;;;11.29;64.45;98623.97;5047894;28;20041;-84
2021/05/23 00:19:17;;;;;;;2.88;0.77;;;;;;;11.27;66.20;98626.03;5044155;28;20071;-84
2021/05/23 00:21:43;;;;;;;2.13;0.80;;;;;;;11.19;68.28;98626.22;5037653;28;20045;-84
2021/05/23 00:24:10;;;;;;;0.70;0.60;;;;;;;11.12;69.14;98631.63;5045490;28;20131;-84
2021/05/23 00:26:36;;;;;;;1.45;0.65;;;;;;;11.01;69.55;98618.59;5052202;28;20048;-85
2021/05/23 00:29:03;;;;;;;1.10;0.70;;;;;;;11.07;70.42;98633.28;5051028;28;20056;-85
2021/05/23 00:31:30;;;;;;;4.85;0.70;;;;;;;11.02;69.47;98625.72;5052346;28;20048;-84
2021/05/23 00:33:58;;;;;;;0.73;0.60;;;;;;;11.17;68.81;98620.16;5043462;28;20218;-83
2021/05/23 00:36:24;;;;;;;2.50;0.80;;;;;;;11.18;70.69;98640.84;5035175;28;20045;-83
2021/05/23 00:38:51;;;;;;;2.58;0.80;;;;;;;11.23;70.23;98641.09;5037946;28;20049;-84
2021/05/23 00:41:18;;;;;;;0.45;0.45;;;;;;;11.04;72.28;98637.22;5038942;28;20053;-84
2021/05/23 00:43:44;;;;;;;3.53;0.70;;;;;;;10.97;72.92;98642.66;5040220;28;20044;-84
2021/05/23 00:46:10;;;;;;;1.73;0.80;;;;;;;11.04;74.45;98648.13;5050364;28;20056;-84
2021/05/23 00:48:37;;;;;;;2.92;0.80;;;;;;;11.02;73.64;98636.59;5038137;28;20053;-84
2021/05/23 00:51:04;;;;;;;2.45;0.77;;;;;;;11.04;74.16;98650.00;5041899;28;20053;-84
2021/05/23 00:53:30;;;;;;;3.75;0.88;;;;;;;11.14;72.99;98636.84;5031501;28;20049;-84
2021/05/23 00:55:57;;;;;;;1.23;0.60;;;;;;;11.00;74.26;98637.84;5033797;28;20045;-84
2021/05/23 00:58:23;;;;;;;4.07;1.00;;;;;;;11.03;74.11;98642.88;5051649;28;20047;-84
2021/05/23 01:01:13;;;;;;;2.95;0.70;;;;;;;10.95;73.92;98646.59;5050261;28;20099;-84
2021/05/23 01:03:53;;;;;;;4.03;0.70;;;;;;;10.92;74.13;98655.16;5051580;28;20088;-84
2021/05/23 01:06:21;;;;;;;0.93;0.80;;;;;;;10.81;73.88;98640.25;5049516;28;20060;-83
2021/05/23 01:08:49;;;;;;;3.75;0.77;;;;;;;10.78;71.51;98655.06;5033890;28;20052;-84
2021/05/23 01:11:54;;;;;;;2.50;0.95;;;;;;;10.86;70.98;98659.50;5034002;28;20158;-83
2021/05/23 01:14:45;;;;;;;0.85;0.60;;;;;;;10.84;69.39;98642.56;5031537;28;20050;-82
2021/05/23 01:17:12;;;;;;;;;;;;;;;10.88;69.47;98641.09;5040422;28;20570;-83
2021/05/23 01:19:50;;;;;;;2.00;1.00;;;;;;;10.82;70.00;98641.91;5039717;28;19920;-84
2021/05/23 01:22:26;;;;;;;3.75;0.90;;;;;;;10.84;69.98;98649.88;5051079;28;20044;-83
2021/05/23 01:25:12;;;;;;;1.50;0.60;;;;;;;10.82;68.02;98671.81;5050755;28;20057;-84
2021/05/23 01:27:45;;;;;;;0.80;0.60;;;;;;;10.84;69.43;98650.72;5038304;28;20063;-83
2021/05/23 01:30:14;;;;;;;3.90;0.70;;;;;;;10.84;68.32;98664.31;5037790;28;20132;-84
2021/05/23 01:32:43;;;;;;;0.70;0.38;;;;;;;10.84;69.88;98656.16;5033466;28;20049;-84
2021/05/23 01:35:16;;;;;;;0.98;0.43;;;;;;;10.95;68.97;98671.91;5042610;28;20052;-83
2021/05/23 01:37:44;;;;;;;1.23;0.70;;;;;;;10.89;68.59;98672.72;5040031;28;20454;-85
2021/05/23 01:40:13;;;;;;;3.17;0.70;;;;;;;10.96;69.15;98687.19;5038948;28;20049;-84
2021/05/23 01:42:40;;;;;;;0.57;0.50;;;;;;;11.01;67.95;98691.22;5044729;28;20053;-84
2021/05/23 01:45:08;;;;;;;2.33;0.63;;;;;;;10.89;66.69;98693.63;5050739;28;20044;-84
2021/05/23 01:47:35;;;;;;;2.13;0.50;;;;;;;10.94;67.27;98680.25;5041719;28;20493;-85
2021/05/23 01:50:01;;;;;;;0.90;0.50;;;;;;;10.99;67.28;98688.69;5048644;28;20094;-84
2021/05/23 01:52:28;;;;;;;2.28;0.70;;;;;;;10.98;67.16;98690.53;5050518;28;20059;-84
2021/05/23 01:54:54;;;;;;;1.33;1.02;;;;;;;10.87;67.96;98676.66;5040846;28;20068;-84
2021/05/23 01:57:24;;;;;;;2.20;0.70;;;;;;;10.97;67.06;98696.19;5037361;28;20057;-84
2021/05/23 01:59:50;;;;;;;0.73;0.38;;;;;;;11.09;65.87;98693.75;5050649;28;20041;-84
2021/05/23 02:02:17;;;;;;;1.65;1.08;;;;;;;10.89;68.04;98697.19;5050921;28;20068;-84
2021/05/23 02:04:43;;;;;;;1.05;0.52;;;;;;;10.88;67.55;98694.66;5050341;28;20076;-84
2021/05/23 02:07:10;;;;;;;0.95;0.65;;;;;;;10.77;69.07;98686.00;5049885;28;20048;-84
2021/05/23 02:09:36;;;;;;;1.17;0.50;;;;;;;10.76;69.60;98699.81;5054080;28;20562;-83
2021/05/23 02:12:03;;;;;;;1.77;0.63;;;;;;;10.74;71.16;98691.00;5035065;28;20052;-83
2021/05/23 02:14:30;;;;;;;1.60;0.75;;;;;;;10.79;70.83;98710.28;5041502;28;20463;-83
2021/05/23 02:16:58;;;;;;;5.95;0.63;;;;;;;10.70;70.77;98701.41;5038443;28;20382;-83
2021/05/23 02:19:24;;;;;;;2.28;0.65;;;;;;;10.67;70.93;98720.84;5041497;28;20053;-83
2021/05/23 02:21:51;;;;;;;3.65;0.90;;;;;;;10.67;70.43;98709.97;5055174;28;20052;-82
2021/05/23 02:24:18;;;;;;;2.92;0.95;;;;;;;10.72;70.94;98720.25;5043646;28;20045;-83
2021/05/23 02:26:44;;;;;;;1.67;0.52;;;;;;;10.72;71.19;98723.84;5052076;28;20048;-83
2021/05/23 02:29:11;;;;;;;0.60;0.45;;;;;;;10.67;71.01;98720.84;5042839;28;20056;-84
2021/05/23 02:31:38;;;;;;;1.02;0.60;;;;;;;10.70;72.28;98727.78;5048245;28;20059;-84
2021/05/23 02:34:05;;;;;;;1.83;0.60;;;;;;;10.45;72.79;98737.19;5047398;28;20049;-83
2021/05/23 02:36:40;;;;;;;3.60;0.77;;;;;;;10.22;74.95;98734.63;5046070;28;20045;-83
2021/05/23 02:39:10;;;;;;;4.57;0.80;;;;;;;9.80;75.54;98752.56;5051488;28;20046;-83
2021/05/23 02:41:46;;;;;;;3.30;0.65;;;;;;;9.72;77.94;98744.50;5038684;28;20037;-82
2021/05/23 02:44:13;;;;;;;1.77;0.88;;;;;;;9.49;80.29;98742.75;5051798;28;20041;-82
2021/05/23 02:46:42;;;;;;;2.70;0.80;;;;;;;9.50;80.75;98741.72;5053463;28;20455;-81
2021/05/23 02:49:09;;;;;;;1.15;0.68;;;;;;;9.48;80.77;98724.78;5052983;28;20085;-82
2021/05/23 02:51:56;;;;;;;2.53;0.80;;;;;;;9.51;81.88;98732.53;5053438;28;20731;-82
2021/05/23 02:54:43;;;;;;;6.38;1.20;;;;;;;9.50;81.00;98736.31;5048052;28;20128;-82
2021/05/23 03:00:46;;;;;;;2.55;0.65;;;;;;;9.48;79.87;98734.78;5022149;28;20076;-82
2021/05/23 03:27:57;;;;;;;6.15;0.80;;;;;;;9.31;81.11;98753.16;4839458;29;20061;-82
2021/05/23 03:51:16;;;;;;;2.33;0.50;;;;;;;9.37;81.71;98804.78;4937905;29;20479;-82
2021/05/23 03:53:57;;;;;;;2.15;0.55;;;;;;;9.38;81.01;98792.91;4893425;29;20134;-82
2021/05/23 03:56:25;;;;;;;1.20;0.80;;;;;;;9.35;80.69;98798.69;4996075;28;20154;-82
2021/05/23 03:58:56;;;;;;;2.38;0.68;;;;;;;9.34;81.17;98805.16;5039627;28;20053;-82
2021/05/23 04:01:36;;;;;;;3.15;0.70;;;;;;;9.51;82.31;98813.09;5050685;28;20048;-82
2021/05/23 04:04:10;;;;;;;;;;;;;;;9.50;82.41;98823.13;5049338;28;20048;-81
2021/05/23 04:06:57;;;;;;;;;;;;;;;;;;;;;
2021/05/23 04:09:32;;;;;;;1.42;1.08;;;;;;;9.24;83.48;98826.25;5042540;28;20060;-82
2021/05/23 04:11:58;;;;;;;1.15;0.70;;;;;;;9.35;83.71;98842.09;5052005;28;20071;-81
2021/05/23 04:14:25;;;;;;;2.67;0.80;;;;;;;9.37;81.80;98848.19;5046537;28;20103;-81
2021/05/23 04:16:51;;;;;;;0.68;0.57;;;;;;;9.41;82.74;98872.22;5037091;28;20057;-81
2021/05/23 04:19:20;;;;;;;0.60;0.60;;;;;;;9.33;82.65;98862.28;5033655;28;20049;-81
2021/05/23 04:21:51;;;;;;;0.82;0.40;;;;;;;9.43;83.21;98871.03;5037404;28;20143;-82
2021/05/23 04:24:18;;;;;;;0.90;0.55;;;;;;;9.42;82.21;98865.78;5031908;28;20046;-82
2021/05/23 04:26:44;;;;;;;3.00;0.90;;;;;;;9.57;82.13;98878.34;5036806;28;20053;-82
2021/05/23 04:29:10;;;;;;;1.55;0.85;;;;;;;9.39;83.33;98869.69;5051839;28;20093;-82
2021/05/23 04:31:36;;;;;;;0.65;0.60;;;;;;;9.42;82.73;98882.06;5046148;28;20049;-82
2021/05/23 04:34:03;;;;;;;1.67;0.50;;;;;;;9.44;82.47;98885.41;5033468;28;20555;-82
2021/05/23 04:36:30;;;;;;;1.75;0.65;;;;;;;9.28;82.79;98870.16;5032046;28;20057;-82
2021/05/23 04:38:56;;;;;;;0.70;0.70;;;;;;;9.40;82.85;98874.09;5045055;28;20045;-82
2021/05/23 04:41:23;;;;;;;1.85;0.60;;;;;;;9.56;82.62;98886.69;5042906;28;20045;-82
2021/05/23 04:43:49;;;;;;;3.88;0.60;;;;;;;9.52;82.41;98869.91;5041898;28;20497;-82
2021/05/23 04:46:15;;;;;;;1.38;0.60;;;;;;;9.70;82.79;98885.84;5034740;28;20056;-82
2021/05/23 04:48:41;;;;;;;0.70;0.70;;;;;;;9.56;83.46;98878.53;5032786;28;20481;-82
2021/05/23 04:51:08;;;;;;;0.50;0.50;;;;;;;9.55;82.26;98879.56;5032744;28;20387;-82
2021/05/23 04:53:35;;;;;;;1.70;0.45;;;;;;;9.59;81.45;98899.00;5050946;28;20059;-82
2021/05/23 04:56:01;;;;;;;0.50;0.50;;;;;;;9.54;81.28;98891.44;5050615;28;20547;-82
2021/05/23 04:58:27;;;;;;;3.15;0.75;;;;;;;9.39;81.91;98867.84;5051205;28;20049;-82
2021/05/23 05:00:54;;;;;;;1.50;0.60;;;;;;;9.62;83.45;98894.06;5047928;28;20051;-82
2021/05/23 05:03:20;;;;;;;0.35;0.35;;;;;;;9.69;81.97;98905.84;5046319;28;20049;-82
2021/05/23 05:05:46;;;;;;;2.95;0.70;;;;;;;9.51;82.03;98892.63;5050442;28;20108;-82
2021/05/23 05:09:04;;;;;;;0.40;0.40;;;;;;;9.51;81.23;98897.22;5043289;28;20056;-83
2021/05/23 05:18:15;;;;;;;1.25;0.43;;;;;;;9.49;80.92;98924.56;4985416;28;20134;-82
2021/05/23 05:20:45;;;;;;;3.03;0.50;;;;;;;9.64;81.28;98934.59;4997613;28;20050;-85
2021/05/23 05:23:12;;;;;;;0.88;0.60;;;;;;;9.56;80.87;98939.06;5007636;28;20053;-82
2021/05/23 05:25:50;;;;;;;0.40;0.40;;;;;;;9.73;81.12;98933.50;5030617;28;20060;-82
2021/05/23 05:28:19;;;;;;;0.65;0.50;;;;;;;9.71;79.52;98949.97;5039978;28;20061;-82
2021/05/23 05:30:45;;;;;;;0.30;0.30;;;;;;;9.70;79.61;98963.72;5051372;28;20385;-83
2021/05/23 05:33:11;;;;;;;2.03;0.50;;;;;;;9.62;79.40;98961.06;5052795;28;20045;-82
2021/05/23 05:35:38;;;;;;;0.73;0.60;;;;;;;9.60;79.23;98946.84;5043149;28;20057;-83
2021/05/23 05:38:04;;;;;;;0.77;0.50;;;;;;;9.88;80.05;98949.81;5041767;28;20136;-83
2021/05/23 05:40:30;;;;;;;2.70;0.80;;;;;;;9.97;79.50;98942.41;5046131;28;20056;-83
2021/05/23 05:42:57;;;;;;;0.47;0.32;;;;;;;9.93;77.89;98958.22;5057281;28;20443;-82
2021/05/23 05:45:24;;;;;;;0.60;0.50;;;;;;;9.91;79.22;98965.72;5053286;28;20045;-83
2021/05/23 05:47:50;;;;;;;0.63;0.35;;;;;;;9.91;78.76;98973.88;5055412;28;20436;-84
2021/05/23 05:50:27;;;;;;;0.88;0.47;;;;;;;9.86;77.57;98969.00;5053922;28;20049;-83
2021/05/23 05:52:53;;;;;;;1.38;0.77;;;;;;;9.88;77.40;98972.34;5057558;28;20077;-84
2021/05/23 05:55:20;;;;;;;0.52;0.52;;;;;;;9.91;78.05;98992.88;5056494;28;20059;-84
2021/05/23 05:57:46;;;;;;;0.55;0.55;;;;;;;9.88;76.21;98985.94;5054430;28;20045;-84
2021/05/23 06:00:16;;;;;;;1.77;0.60;;;;;;;9.88;76.29;98985.94;5054689;28;20378;-84
2021/05/23 06:02:42;;;;;;;;;;;;;;;10.03;76.81;99006.84;5044340;28;20130;-84
2021/05/23 06:05:09;;;;;;;3.05;0.63;;;;;;;10.09;76.67;99009.66;5054451;28;19947;-84
2021/05/23 06:07:39;;;;;;;1.45;0.50;;;;;;;10.13;76.76;99001.13;5052339;28;20053;-85
2021/05/23 06:10:06;;;;;;;0.52;0.50;;;;;;;10.02;76.25;98989.69;5035324;28;20057;-85
2021/05/23 06:12:33;;;;;;;2.55;0.70;;;;;;;10.31;75.43;99017.91;5037777;28;20057;-84
2021/05/23 06:14:59;;;;;;;2.38;1.10;;;;;;;10.51;74.29;98998.34;5050730;28;20060;-84
2021/05/23 06:17:31;;;;;;;1.85;0.70;;;;;;;10.73;73.02;99010.16;5054037;28;20081;-85
2021/05/23 06:20:48;;;;;;;1.00;0.60;;;;;;;11.03;73.77;99020.97;5053995;28;20045;-84
2021/05/23 06:23:15;;;;;;;4.57;0.70;;;;;;;10.82;73.23;99011.72;5045318;28;20457;-84
2021/05/23 06:25:41;;;;;;;5.90;1.00;;;;;;;10.96;72.25;99018.19;5051368;28;20064;-84
2021/05/23 06:28:14;;;;;;;4.20;0.75;;;;;;;11.09;72.74;99009.31;5054897;28;20041;-85
2021/05/23 06:30:41;;;;;;;1.02;0.55;;;;;;;11.04;72.08;99020.78;5052885;28;20140;-84
2021/05/23 06:33:08;;;;;;;3.35;0.93;;;;;;;10.92;72.50;99011.44;5054715;28;20060;-84
2021/05/23 06:35:35;;;;;;;6.18;1.05;;;;;;;11.11;72.78;99031.72;5050969;28;20037;-84
2021/05/23 06:38:04;;;;;;;0.65;0.65;;;;;;;11.06;72.34;99017.88;5054722;28;20059;-85
2021/05/23 06:40:34;;;;;;;5.32;0.77;;;;;;;11.29;72.11;99037.59;5054270;28;20069;-85
2021/05/23 06:43:00;;;;;;;3.72;0.70;;;;;;;11.79;69.73;99020.50;5050093;28;20053;-85
2021/05/23 06:45:28;;;;;;;4.85;0.70;;;;;;;11.52;69.63;99029.25;5053884;28;20057;-85
2021/05/23 06:47:55;;;;;;;1.77;0.52;;;;;;;11.31;69.11;99024.63;5044427;28;20045;-84
2021/05/23 06:50:24;;;;;;;4.70;1.73;;;;;;;11.92;69.22;99042.38;5053594;28;20049;-84
2021/05/23 06:52:50;;;;;;;1.35;0.63;;;;;;;12.97;67.11;99033.44;5043944;28;20063;-84
2021/05/23 06:55:16;;;;;;;1.63;0.52;;;;;;;13.04;63.69;99026.13;5054175;28;20045;-84
2021/05/23 06:57:43;;;;;;;1.35;0.50;;;;;;;12.86;64.42;99038.41;5049663;28;20416;-83
2021/05/23 07:00:12;;;;;;;1.88;0.60;;;;;;;12.48;65.09;99040.72;5053022;28;20045;-84
2021/05/23 07:02:40;;;;;;;1.50;0.60;;;;;;;12.00;65.99;99022.38;5054445;28;20238;-84
2021/05/23 07:05:17;;;;;;;0.75;0.70;;;;;;;12.19;65.17;99035.31;5045733;28;20041;-86
2021/05/23 07:08:21;;;;;;;;;;;;;;;;;;;;;
2021/05/23 07:10:48;;;;;;;2.90;0.90;;;;;;;13.50;62.88;99025.41;5052836;28;20050;-84
2021/05/23 07:13:16;;;;;;;0.77;0.70;;;;;;;13.56;61.95;99051.88;5053646;28;20049;-84
2021/05/23 07:15:44;;;;;;;0.60;0.50;;;;;;;13.15;62.72;99032.88;5052880;28;20067;-84
2021/05/23 07:18:11;;;;;;;3.78;1.02;;;;;;;12.85;65.44;99020.34;5053780;28;20048;-84
2021/05/23 07:20:46;;;;;;;2.92;0.70;;;;;;;12.62;67.48;99052.56;5051267;28;20124;-80
2021/05/23 07:23:17;;;;;;;2.15;1.10;;;;;;;12.20;68.42;99042.41;5055251;28;20049;-79
2021/05/23 07:25:43;;;;;;;1.90;0.90;;;;;;;12.53;70.28;99044.53;5054039;28;20045;-79
2021/05/23 07:28:09;;;;;;;2.95;1.10;;;;;;;12.65;68.45;99036.63;5038361;28;20052;-79
2021/05/23 07:30:47;;;;;;;1.65;0.50;;;;;;;12.61;67.75;99054.44;5050316;28;20408;-79
2021/05/23 07:33:15;;;;;;;1.65;0.60;;;;;;;12.49;68.47;99056.88;5044862;28;20932;-80
2021/05/23 07:35:41;;;;;;;2.88;0.70;;;;;;;12.43;68.50;99046.75;5047977;28;20213;-81
2021/05/23 07:38:08;;;;;;;2.63;0.73;;;;;;;12.29;66.71;99043.13;5036451;28;20497;-80
2021/05/23 07:40:35;;;;;;;2.40;0.60;;;;;;;12.39;65.40;99056.41;5032881;28;20056;-79
2021/05/23 07:43:02;;;;;;;1.80;0.60;;;;;;;12.48;66.11;99057.94;5050314;28;20049;-80
2021/05/23 07:45:32;;;;;;;0.93;0.57;;;;;;;12.36;64.07;99051.31;5042246;28;20099;-81
2021/05/23 07:47:58;;;;;;;;;;;;;;;13.01;64.81;99049.19;5045615;28;20064;-82
2021/05/23 07:50:25;;;;;;;1.65;0.70;;;;;;;13.17;61.19;99041.69;5046571;28;19975;-80
2021/05/23 07:53:01;;;;;;;1.92;0.80;;;;;;;13.09;61.27;99040.81;5043345;28;20052;-80
2021/05/23 07:55:38;;;;;;;0.85;0.60;;;;;;;13.05;62.82;99046.88;5032826;28;20136;-80
2021/05/23 07:58:04;;;;;;;1.10;0.47;;;;;;;12.64;62.16;99048.56;5038716;28;20481;-80
2021/05/23 08:00:30;;;;;;;0.93;0.50;;;;;;;12.62;62.76;99056.13;5033871;28;20049;-80
2021/05/23 08:03:46;;;;;;;0.52;0.35;;;;;;;12.56;62.59;99052.31;5032129;28;20049;-80
2021/05/23 08:09:55;;;;;;;1.35;0.40;;;;;;;12.53;62.61;99055.44;5017483;28;20060;-81
2021/05/23 08:12:22;;;;;;;2.35;0.60;;;;;;;12.75;63.01;99063.53;5008977;28;20120;-80
2021/05/23 08:14:49;;;;;;;3.83;0.80;;;;;;;12.75;62.23;99074.44;4998448;28;20113;-80
2021/05/23 08:17:15;;;;;;;1.85;0.73;;;;;;;12.83;61.39;99071.56;5025266;28;20343;-81
2021/05/23 08:19:42;;;;;;;0.75;0.38;;;;;;;13.60;59.00;99082.38;5032502;28;20099;-81
2021/05/23 08:22:30;;;;;;;1.00;0.38;;;;;;;13.54;57.63;99066.81;5045810;28;20554;-81
2021/05/23 08:25:23;;;;;;;2.35;0.40;;;;;;;13.32;57.58;99058.72;5044995;28;20091;-81
2021/05/23 08:28:31;;;;;;;1.70;0.47;;;;;;;13.71;57.24;99054.44;5049728;28;20477;-83
2021/05/23 08:31:44;;;;;;;2.15;0.50;;;;;;;14.01;54.93;99059.50;5029233;28;20369;-81
2021/05/23 08:37:46;;;;;;;4.13;1.15;;;;;;;14.52;55.07;99067.03;5007080;28;20053;-78
2021/05/23 08:40:13;;;;;;;1.83;0.50;;;;;;;14.78;57.92;99076.28;5008738;28;20140;-80
2021/05/23 08:42:40;;;;;;;0.65;0.40;;;;;;;14.86;55.48;99078.78;5032683;28;20480;-80
2021/05/23 08:45:08;;;;;;;2.42;0.80;;;;;;;14.50;56.83;99074.63;5050452;28;20079;-80
2021/05/23 08:47:40;;;;;;;3.38;0.55;;;;;;;14.96;54.86;99077.50;5049658;28;20072;-80
2021/05/23 08:50:08;;;;;;;1.85;0.45;;;;;;;14.52;56.34;99071.69;5050379;28;20045;-79
2021/05/23 08:52:34;;;;;;;1.70;0.47;;;;;;;14.25;56.64;99096.31;5051178;28;20052;-79
2021/05/23 08:55:00;;;;;;;2.28;0.68;;;;;;;14.26;55.83;99083.50;5049216;28;20134;-80
2021/05/23 08:57:26;;;;;;;1.52;0.38;;;;;;;14.39;54.13;99088.97;5051366;28;20072;-79
2021/05/23 08:59:53;;;;;;;1.00;0.50;;;;;;;14.01;54.45;99088.75;5050655;28;20056;-79
2021/05/23 09:02:20;;;;;;;1.30;0.50;;;;;;;13.70;55.75;99087.44;5050651;28;20656;-80
2021/05/23 09:04:47;;;;;;;0.88;0.50;;;;;;;13.80;56.20;99086.00;5050388;28;20523;-79
2021/05/23 09:07:13;;;;;;;1.70;0.40;;;;;;;14.21;58.13;99100.53;5051289;28;20145;-80
2021/05/23 09:09:44;;;;;;;1.88;0.50;;;;;;;14.18;56.59;99087.25;5050935;28;20049;-80
2021/05/23 09:12:13;;;;;;;2.42;0.57;;;;;;;14.79;53.58;99083.44;5049626;28;20041;-79
2021/05/23 09:14:42;;;;;;;4.30;0.98;;;;;;;14.26;51.89;99086.25;5049377;28;20171;-81
2021/05/23 09:17:20;;;;;;;2.85;0.50;;;;;;;14.06;53.03;99081.59;5050050;28;20127;-80
2021/05/23 09:19:49;;;;;;;1.35;0.90;;;;;;;13.93;54.67;99092.53;5050428;28;20099;-80
2021/05/23 09:22:24;;;;;;;0.45;0.40;;;;;;;13.96;54.58;99106.59;5050307;28;20052;-80
2021/05/23 09:24:58;;;;;;;0.85;0.40;;;;;;;13.78;53.74;99081.78;5049689;28;20068;-81
2021/05/23 09:27:27;;;;;;;1.17;0.32;;;;;;;13.79;54.97;99108.06;5045996;28;20075;-80
2021/05/23 09:30:08;;;;;;;0.35;0.32;;;;;;;13.77;55.41;99108.25;5042701;28;20128;-80
2021/05/23 09:32:40;;;;;;;1.23;0.45;;;;;;;13.22;60.11;99105.53;5047246;28;20061;-80
2021/05/23 09:35:11;;;;;;;0.95;0.50;;;;;;;13.45;57.77;99102.50;5042798;28;20493;-80
2021/05/23 09:37:39;;;;;;;1.52;0.43;;;;;;;13.67;56.83;99121.47;5040079;28;20053;-80
2021/05/23 09:40:21;;;;;;;6.35;0.73;;;;;;;14.08;57.68;99115.03;5031228;28;20050;-81
2021/05/23 09:42:53;;;;;;;1.50;0.45;;;;;;;14.34;54.39;99121.56;5038121;28;20455;-79
2021/05/23 09:45:52;;;;;;;2.42;0.50;;;;;;;14.62;50.94;99115.06;5045703;28;20468;-81
2021/05/23 09:48:24;;;;;;;0.30;0.30;;;;;;;15.15;49.30;99109.44;5031991;28;20053;-81
2021/05/23 09:50:59;;;;;;;2.40;0.50;;;;;;;14.95;48.85;99109.53;5049512;28;20357;-80
2021/05/23 09:56:31;;;;;;;3.72;0.50;;;;;;;14.22;51.40;99143.22;5047885;28;20443;-81
2021/05/23 09:59:21;;;;;;;2.58;0.40;;;;;;;13.80;52.78;99154.31;5041358;28;20132;-86
2021/05/23 10:01:50;;;;;;;0.30;0.30;;;;;;;13.26;57.33;99150.50;5032822;28;20057;-82
2021/05/23 10:04:22;;;;;;;0.40;0.40;;;;;;;13.00;56.94;99164.00;5030531;28;20049;-80
2021/05/23 10:07:00;;;;;;;1.75;0.20;;;;;;;12.88;58.29;99139.16;5035258;28;20058;-81
2021/05/23 10:09:27;;;;;;;0.65;0.32;;;;;;;13.07;59.79;99153.97;5052963;28;20499;-82
2021/05/23 10:12:02;;;;;;;1.00;0.68;;;;;;;13.51;59.33;99147.25;5038315;28;20049;-82
2021/05/23 10:14:30;;;;;;;1.50;0.70;;;;;;;13.88;56.96;99157.88;5031261;28;20046;-78
2021/05/23 10:16:56;;;;;;;0.38;0.38;;;;;;;14.07;54.01;99145.31;5032548;28;20046;-79
2021/05/23 10:19:27;;;;;;;2.55;0.52;;;;;;;14.08;51.98;99161.50;5043459;28;20053;-79
2021/05/23 10:21:55;;;;;;;2.42;0.60;;;;;;;14.17;51.51;99151.22;5052594;28;20049;-80
2021/05/23 10:24:28;;;;;;;2.28;0.45;;;;;;;14.04;53.19;99149.28;5036392;28;20107;-79
2021/05/23 10:26:59;;;;;;;1.83;0.98;;;;;;;14.60;52.77;99164.50;5035597;28;20050;-80
2021/05/23 10:29:26;;;;;;;2.83;0.57;;;;;;;14.47;53.73;99159.03;5046461;28;20511;-80
2021/05/23 10:32:31;;;;;;;1.27;0.40;;;;;;;14.34;53.34;99157.94;5056013;28;20107;-80
2021/05/23 10:35:12;;;;;;;0.93;0.60;;;;;;;14.97;53.10;99153.09;5035724;28;20111;-80
2021/05/23 10:37:47;;;;;;;2.58;0.65;;;;;;;15.40;53.22;99155.25;5045458;28;20061;-80
2021/05/23 10:40:27;;;;;;;2.15;0.60;;;;;;;15.52;50.25;99137.13;5055623;28;20095;-80
2021/05/23 10:42:55;;;;;;;1.95;0.60;;;;;;;15.44;49.96;99139.25;5055836;28;20056;-80
2021/05/23 10:45:27;;;;;;;5.63;0.65;;;;;;;15.65;50.93;99140.84;5055245;28;20073;-80
2021/05/23 10:47:55;;;;;;;0.70;0.40;;;;;;;15.50;50.31;99127.44;5055711;28;20060;-80
2021/05/23 10:50:31;;;;;;;2.15;0.80;;;;;;;15.55;49.91;99133.06;5055076;28;20484;-80
2021/05/23 10:53:00;;;;;;;2.45;0.60;;;;;;;15.68;50.62;99133.00;5055653;28;20080;-81
2021/05/23 10:55:26;;;;;;;0.70;0.52;;;;;;;16.39;50.93;99136.56;5055655;28;20136;-79
2021/05/23 10:57:55;;;;;;;1.67;0.80;;;;;;;16.70;49.55;99131.25;5055471;28;20115;-82
2021/05/23 11:00:23;;;;;;;2.45;1.73;;;;;;;16.30;47.35;99137.91;5035801;28;20092;-79
2021/05/23 11:02:51;;;;;;;4.65;1.55;;;;;;;16.12;50.37;99152.41;5043279;28;20054;-79
2021/05/23 11:05:24;;;;;;;4.35;0.90;;;;;;;15.74;47.86;99134.03;5035169;28;20103;-80
2021/05/23 11:07:56;;;;;;;2.97;1.70;;;;;;;15.60;51.35;99143.38;5035183;28;20065;-81
2021/05/23 11:10:24;;;;;;;1.98;0.60;;;;;;;15.51;49.91;99134.59;5035784;28;20053;-80
2021/05/23 11:12:53;;;;;;;2.08;0.80;;;;;;;15.56;50.30;99152.03;5034973;28;20111;-81
2021/05/23 11:15:20;;;;;;;7.30;1.23;;;;;;;15.33;48.56;99143.53;5034863;28;20049;-81
2021/05/23 11:17:49;;;;;;;5.22;2.15;;;;;;;15.24;49.49;99133.88;5034665;28;20049;-82
2021/05/23 11:20:22;;;;;;;1.73;0.80;;;;;;;16.00;48.98;99135.81;5036300;28;20057;-79
2021/05/23 11:22:57;;;;;;;0.82;0.50;;;;;;;16.46;48.57;99133.78;5054945;28;20052;-81
2021/05/23 11:25:24;;;;;;;0.55;0.47;;;;;;;16.68;42.66;99131.50;5034295;28;20042;-81
2021/05/23 11:28:18;;;;;;;0.65;0.60;;;;;;;16.63;44.30;99104.72;5035422;28;20049;-81
2021/05/23 11:30:46;;;;;;;1.40;0.38;;;;;;;16.32;45.30;99132.22;5035217;28;20485;-80
2021/05/23 11:33:18;;;;;;;2.05;0.63;;;;;;;16.58;44.97;99126.50;5035250;28;20131;-80
2021/05/23 11:35:49;;;;;;;1.70;0.50;;;;;;;16.61;41.88;99114.25;5034588;28;20107;-80
2021/05/23 11:38:38;;;;;;;0.70;0.50;;;;;;;16.30;42.17;99105.00;5049153;28;20131;-80
2021/05/23 11:41:06;;;;;;;2.17;0.75;;;;;;;16.72;40.98;99118.16;5035081;28;20390;-80
2021/05/23 11:44:07;;;;;;;0.93;0.40;;;;;;;16.98;40.76;99125.28;5032374;28;20046;-81
2021/05/23 11:46:33;;;;;;;;;;;;;;;16.86;42.77;99122.44;5035039;28;20409;-80
2021/05/23 11:49:02;;;;;;;0.95;0.50;;;;;;;16.85;44.20;99133.66;5049052;28;19924;-81
2021/05/23 11:51:31;;;;;;;0.98;0.47;;;;;;;16.28;43.79;99115.38;5054473;28;20047;-81
2021/05/23 11:53:58;;;;;;;1.55;0.43;;;;;;;15.99;46.32;99153.34;5045013;28;20041;-82
2021/05/23 11:56:30;;;;;;;2.60;0.68;;;;;;;14.85;52.05;99151.00;5053667;28;20053;-81
2021/05/23 11:58:57;;;;;;;1.55;0.47;;;;;;;14.61;54.86;99157.97;5053536;28;20041;-81
2021/05/23 12:01:27;;;;;;;0.73;0.30;;;;;;;14.16;57.31;99161.28;5053448;28;20057;-81
2021/05/23 12:04:09;;;;;;;1.20;0.68;;;;;;;14.43;58.98;99142.16;5053556;28;20155;-81
2021/05/23 12:06:50;;;;;;;0.60;0.38;;;;;;;14.24;59.06;99123.88;5053946;28;20075;-80
2021/05/23 12:09:18;;;;;;;0.28;0.28;;;;;;;14.62;56.19;99146.00;5054062;28;20049;-82
2021/05/23 12:12:21;;;;;;;0.77;0.25;;;;;;;15.27;53.41;99125.22;5053979;28;20061;-81
2021/05/23 12:14:47;;;;;;;1.08;0.30;;;;;;;16.20;53.47;99121.97;5051558;28;20412;-82
2021/05/23 12:20:03;;;;;;;1.02;0.45;;;;;;;17.09;49.31;99123.72;5052763;28;20135;-81
2021/05/23 12:22:31;;;;;;;0.50;0.40;;;;;;;16.89;52.20;99132.16;5053049;28;20045;-82
2021/05/23 12:25:00;;;;;;;0.90;0.40;;;;;;;16.53;50.20;99125.50;5053291;28;20049;-82
2021/05/23 12:27:32;;;;;;;1.38;0.40;;;;;;;16.89;50.88;99129.41;5051261;28;20076;-82
2021/05/23 12:33:09;;;;;;;0.70;0.40;;;;;;;16.61;51.13;99122.47;5039925;28;20087;-83
2021/05/23 12:35:43;;;;;;;0.65;0.30;;;;;;;16.20;48.34;99100.03;5045089;28;20520;-83
2021/05/23 12:38:14;;;;;;;0.80;0.60;;;;;;;17.22;46.25;99118.03;5034947;28;20077;-82
2021/05/23 12:40:42;;;;;;;1.55;0.38;;;;;;;17.03;47.06;99122.72;5033293;28;20053;-82
2021/05/23 12:43:14;;;;;;;1.75;0.60;;;;;;;16.83;48.18;99127.53;5038092;28;20045;-82
2021/05/23 12:45:44;;;;;;;1.40;0.47;;;;;;;16.61;49.27;99109.59;5051713;28;20045;-82
2021/05/23 12:48:13;;;;;;;0.50;0.50;;;;;;;16.70;48.62;99126.59;5051017;28;20496;-82
2021/05/23 12:50:41;;;;;;;3.33;0.70;;;;;;;16.45;48.36;99115.63;5052208;28;20053;-82
2021/05/23 12:53:09;;;;;;;0.88;0.50;;;;;;;17.25;46.95;99098.38;5051317;28;20298;-82
2021/05/23 12:56:22;;;;;;;0.60;0.40;;;;;;;17.75;48.30;99100.03;5040306;28;20049;-82
2021/05/23 12:59:27;;;;;;;1.42;0.40;;;;;;;18.27;47.20;99099.47;5008313;28;20504;-82
2021/05/23 13:02:06;;;;;;;0.98;0.35;;;;;;;18.60;46.30;99095.31;5033482;28;20057;-82
2021/05/23 13:04:34;;;;;;;1.13;0.40;;;;;;;18.44;44.30;99099.63;5044767;28;20404;-82
2021/05/23 13:07:02;;;;;;;2.47;0.50;;;;;;;19.04;47.24;99105.97;5052591;28;20060;-80
2021/05/23 13:09:32;;;;;;;0.98;0.60;;;;;;;19.24;42.61;99100.91;5052530;28;20048;-81
2021/05/23 13:12:01;;;;;;;3.40;0.70;;;;;;;18.24;43.78;99096.38;5037769;28;20056;-80